Atlanta, Louisiana
Current Conditions -  °F | °C
As of 10:55 AM on Saturday 22 Nov 2014 (Local Time) from KIER Reporting Station
Clear Clear  
Wind Chill: 20°   Ceiling: Unl
Heat Index: 20°   Visibility: 10mi
Dew Point: 14°   Wind: 9mph
Humidity: 68%   Direction: 150°SSE
Pressure: 30.14"   Gusts: 17mph
Location:  31.81°N, 92.74°W
Report Text: KIER 221655Z AUTO 15008G15KT 10SM CLR 20/14 A3014 RMK AO2 LTG DSNT W AND NW T01960136
Loading
Personal Weather Stations






























Interactive Weather Map New forecast layout! Learn more

10-Day Weather Forecast

Advertisements
Track Severe Weather on mobile